createdAt,value
2023-02-08T00:07:50.436Z,98.85
2023-02-08T00:17:54.722Z,99.38
2023-02-08T00:27:58.743Z,99.69
2023-02-08T00:38:02.789Z,99.41
2023-02-08T00:48:08.542Z,98.71
2023-02-08T00:58:11.731Z,99.30
2023-02-08T01:08:19.947Z,99.48
2023-02-08T01:18:22.561Z,97.91
2023-02-08T01:28:24.745Z,98.54
2023-02-08T01:38:29.635Z,98.96
2023-02-08T01:48:39.640Z,98.76
2023-02-08T01:58:51.122Z,98.80
2023-02-08T02:09:02.165Z,98.98
2023-02-08T02:19:17.744Z,99.41
2023-02-08T02:29:34.758Z,99.38
2023-02-08T02:39:42.805Z,99.66
2023-02-08T02:50:08.141Z,100.00
2023-02-08T03:00:14.169Z,99.66
2023-02-08T03:10:33.404Z,99.19
2023-02-08T03:21:03.276Z,100.00
2023-02-08T03:31:41.329Z,100.00
2023-02-08T03:41:46.773Z,100.00
2023-02-08T03:51:54.513Z,100.00
2023-02-08T04:02:03.101Z,100.00
2023-02-08T04:12:08.137Z,100.00
2023-02-08T04:22:14.786Z,100.00
2023-02-08T04:32:21.745Z,100.00
2023-02-08T04:42:33.643Z,100.00
2023-02-08T04:52:35.960Z,100.00
2023-02-08T05:02:40.305Z,100.00
2023-02-08T05:12:45.956Z,100.00
2023-02-08T05:22:52.419Z,100.00
2023-02-08T05:32:55.673Z,100.00
2023-02-08T05:43:02.462Z,100.00
2023-02-08T05:53:07.003Z,100.00
2023-02-08T06:03:09.125Z,100.00
2023-02-08T06:13:13.384Z,100.00
2023-02-08T06:23:18.052Z,100.00
2023-02-08T06:33:23.229Z,100.00
2023-02-08T06:43:28.226Z,100.00
2023-02-08T06:53:33.002Z,100.00
2023-02-08T07:03:36.568Z,100.00
2023-02-08T07:13:39.689Z,100.00
2023-02-08T07:23:41.911Z,100.00
2023-02-08T07:33:47.421Z,100.00
2023-02-08T07:43:49.591Z,100.00
2023-02-08T07:53:54.553Z,100.00
2023-02-08T08:03:59.464Z,100.00
2023-02-08T08:14:04.784Z,100.00
2023-02-08T08:24:10.157Z,100.00
2023-02-08T08:34:17.028Z,100.00
2023-02-08T08:44:19.297Z,100.00
2023-02-08T08:54:26.823Z,100.00
2023-02-08T09:04:29.083Z,100.00
2023-02-08T09:14:34.617Z,100.00
2023-02-08T09:24:41.282Z,99.03
2023-02-08T09:34:43.366Z,96.96
2023-02-08T09:44:48.473Z,93.61
2023-02-08T09:54:54.872Z,89.38
2023-02-08T10:05:19.861Z,89.22
2023-02-08T10:15:59.126Z,85.80
2023-02-08T10:26:14.003Z,83.78
2023-02-08T10:36:21.173Z,82.88
2023-02-08T10:46:28.249Z,81.22
2023-02-08T10:56:40.377Z,76.69
2023-02-08T11:06:45.400Z,71.10
2023-02-08T11:16:55.534Z,70.44
2023-02-08T11:27:03.192Z,67.09
2023-02-08T11:37:26.731Z,68.83
2023-02-08T11:47:34.779Z,67.60
2023-02-08T11:57:55.242Z,71.50
2023-02-08T12:08:28.851Z,70.52
2023-02-08T12:18:55.920Z,70.49
2023-02-08T12:29:47.726Z,63.60
2023-02-08T12:40:31.776Z,63.85
2023-02-08T12:51:11.725Z,61.16
2023-02-08T13:01:23.502Z,59.62
2023-02-08T13:11:28.765Z,61.15
2023-02-08T13:21:38.210Z,58.29
2023-02-08T13:31:51.999Z,56.16
2023-02-08T13:41:55.832Z,57.92
2023-02-08T13:52:02.437Z,57.95
2023-02-08T14:02:15.103Z,58.84
2023-02-08T14:12:37.274Z,60.46
2023-02-08T14:22:40.489Z,61.33
2023-02-08T14:32:48.414Z,60.79
2023-02-08T14:43:21.567Z,60.53
2023-02-08T14:53:35.822Z,61.43
2023-02-08T15:03:43.986Z,62.43
2023-02-08T15:13:54.064Z,63.47
2023-02-08T15:24:00.357Z,64.43
2023-02-08T15:34:04.630Z,65.48
2023-02-08T15:44:23.822Z,67.42
2023-02-08T15:54:26.639Z,68.25
2023-02-08T16:04:28.919Z,69.72
2023-02-08T16:14:50.623Z,70.34
2023-02-08T16:24:56.086Z,71.63
2023-02-08T16:35:12.152Z,72.04
2023-02-08T16:45:23.377Z,72.78
2023-02-08T16:55:27.649Z,73.56
2023-02-08T17:05:37.683Z,74.56
2023-02-08T17:15:44.986Z,74.68
2023-02-08T17:25:47.381Z,75.75
2023-02-08T17:35:52.594Z,76.25
2023-02-08T17:45:54.713Z,77.50
2023-02-08T17:55:56.948Z,77.54
2023-02-08T18:06:00.601Z,77.87
2023-02-08T18:16:18.930Z,78.85
2023-02-08T18:26:22.984Z,79.40
2023-02-08T18:36:25.157Z,79.95
2023-02-08T18:46:32.782Z,80.79
2023-02-08T18:56:37.070Z,81.09
2023-02-08T19:06:39.200Z,81.20
2023-02-08T19:16:43.912Z,81.26
2023-02-08T19:26:48.696Z,80.73
2023-02-08T19:36:54.037Z,80.67
2023-02-08T19:46:58.376Z,81.74
2023-02-08T19:57:01.866Z,82.61
2023-02-08T20:07:04.980Z,83.31
2023-02-08T20:17:09.646Z,84.65
2023-02-08T20:27:11.883Z,86.27
2023-02-08T20:37:14.037Z,86.31
2023-02-08T20:47:22.237Z,87.55
2023-02-08T20:57:25.517Z,88.35
2023-02-08T21:07:27.726Z,86.90
2023-02-08T21:17:35.306Z,86.17
2023-02-08T21:27:39.854Z,85.71
2023-02-08T21:37:44.281Z,84.83
2023-02-08T21:47:46.709Z,85.72
2023-02-08T21:57:51.210Z,86.86
2023-02-08T22:07:58.000Z,87.88
2023-02-08T22:18:04.989Z,89.25
2023-02-08T22:28:08.410Z,90.43
2023-02-08T22:38:10.568Z,90.53
2023-02-08T22:48:15.945Z,89.50
2023-02-08T22:58:23.265Z,88.26
2023-02-08T23:08:27.789Z,88.52
2023-02-08T23:18:32.067Z,88.67
2023-02-08T23:28:36.997Z,89.29
2023-02-08T23:38:42.406Z,88.25
2023-02-08T23:48:48.301Z,88.05
2023-02-08T23:58:52.644Z,87.61
